| time (UTC) | temp C | wind direction | speed KPH | gust KPH | rain 1hr cm | rain 24hr cm | rain mn cm | humidity % | barometer mb |
| 20260509033829 | 12 | 112 | 0.0 | 0.0 | 0.00 | 0.03 | 0.03 | 87 | 1013.7 |
| 20260509032846 | 12 | 112 | 0.0 | 0.0 | 0.00 | 0.03 | 0.03 | 87 | 1013.9 |
| 20260509032744 | 12 | 112 | 0.0 | 0.0 | 0.00 | 0.03 | 0.03 | 87 | 1013.8 |
| 20260509031729 | 12 | 112 | 0.0 | 0.0 | 0.00 | 0.03 | 0.03 | 86 | 1013.9 |
| 20260509031646 | 12 | 112 | 0.0 | 0.0 | 0.00 | 0.03 | 0.03 | 86 | 1014.0 |
| 20260509030629 | 13 | 112 | 0.0 | 0.0 | 0.00 | 0.03 | 0.03 | 86 | 1013.9 |
| 20260509025628 | 13 | 112 | 0.0 | 0.0 | 0.00 | 0.03 | 0.03 | 85 | 1014.0 |
| 20260509024646 | 13 | 112 | 0.0 | 0.0 | 0.00 | 0.03 | 0.03 | 85 | 1014.2 |
| 20260509022629 | 13 | 180 | 0.0 | 0.0 | 0.00 | 0.03 | 0.03 | 86 | 1014.2 |
| 20260509022527 | 13 | 179 | 0.0 | 0.0 | 0.00 | 0.03 | 0.03 | 86 | 1014.3 |
| 20260509022427 | 13 | 180 | 0.0 | 0.0 | 0.00 | 0.03 | 0.03 | 85 | 1014.3 |
| 20260509020429 | 13 | 157 | 0.0 | 0.0 | 0.00 | 0.03 | 0.03 | 85 | 1014.0 |
| 20260509014528 | 13 | 157 | 0.0 | 0.0 | 0.00 | 0.03 | 0.03 | 83 | 1013.3 |
| 20260509013528 | 13 | 157 | 0.0 | 0.0 | 0.00 | 0.03 | 0.03 | 82 | 1013.3 |
| 20260509013444 | 13 | 157 | 0.0 | 0.0 | 0.00 | 0.03 | 0.03 | 82 | 1013.3 |
| 20260509012330 | 13 | 157 | 0.0 | 0.0 | 0.00 | 0.03 | 0.03 | 80 | 1013.4 |
| 20260509011327 | 14 | 180 | 0.0 | 1.6 | 0.00 | 0.03 | 0.03 | 78 | 1013.3 |
| 20260509010328 | 14 | 180 | 0.0 | 0.0 | 0.00 | 0.03 | 0.03 | 79 | 1013.3 |
| 20260509005328 | 15 | 180 | 1.6 | 3.2 | 0.00 | 0.03 | 0.03 | 81 | 1013.2 |
| 20260509001329 | 15 | 202 | 0.0 | 0.0 | 0.00 | 0.03 | 0.03 | 75 | 1012.6 |
| 20260509000327 | 16 | 202 | 0.0 | 0.0 | 0.00 | 0.03 | 0.03 | 73 | 1012.8 |
| 20260508234328 | 16 | 202 | 0.0 | 0.0 | 0.00 | 0.03 | 0.03 | 70 | 1012.6 |
| 20260508234227 | 16 | 202 | 0.0 | 0.0 | 0.00 | 0.03 | 0.03 | 70 | 1012.5 |
| 20260508234128 | 16 | 202 | 0.0 | 0.0 | 0.00 | 0.03 | 0.03 | 70 | 1012.5 |
| 20260508233145 | 16 | 202 | 0.0 | 0.0 | 0.00 | 0.03 | 0.03 | 70 | 1012.4 |
| 20260508231246 | 17 | 225 | 0.0 | 0.0 | 0.00 | 0.03 | 0.03 | 57 | 1012.6 |
| 20260508231128 | 17 | 225 | 0.0 | 0.0 | 0.00 | 0.03 | 0.03 | 56 | 1012.6 |
| 20260508230130 | 17 | 225 | 0.0 | 0.0 | 0.00 | 0.03 | 0.03 | 52 | 1012.6 |
| 20260508230029 | 17 | 225 | 0.0 | 0.0 | 0.00 | 0.03 | 0.03 | 51 | 1012.6 |
| 20260508225029 | 18 | 225 | 0.0 | 0.0 | 0.00 | 0.03 | 0.03 | 48 | 1012.3 |
| 20260508224027 | 18 | 225 | 0.0 | 0.0 | 0.00 | 0.03 | 0.03 | 46 | 1012.4 |
| 20260508222028 | 19 | 225 | 1.6 | 1.6 | 0.00 | 0.03 | 0.03 | 44 | 1012.1 |
| 20260508221028 | 19 | 225 | 0.0 | 1.6 | 0.00 | 0.03 | 0.03 | 43 | 1012.1 |
| 20260508215030 | 20 | 213 | 4.8 | 8.0 | 0.00 | 0.03 | 0.03 | 42 | 1012.0 |
| 20260508214030 | 20 | 225 | 4.8 | 9.7 | 0.00 | 0.03 | 0.03 | 42 | 1012.0 |
| 20260508213028 | 20 | 219 | 3.2 | 6.4 | 0.00 | 0.03 | 0.03 | 42 | 1012.0 |
| 20260508212029 | 20 | 225 | 3.2 | 6.4 | 0.00 | 0.03 | 0.03 | 42 | 1012.1 |
| 20260508211027 | 20 | 225 | 3.2 | 6.4 | 0.00 | 0.03 | 0.03 | 42 | 1012.4 |
| 20260508210947 | 20 | 225 | 8.0 | 12.9 | 0.00 | 0.03 | 0.03 | 43 | 1012.3 |
| 20260508210027 | 20 | 225 | 4.8 | 6.4 | 0.00 | 0.03 | 0.03 | 43 | 1012.4 |
| 20260508205029 | 20 | 225 | 3.2 | 4.8 | 0.00 | 0.03 | 0.03 | 43 | 1012.6 |
| 20260508204045 | 20 | 225 | 4.8 | 6.4 | 0.00 | 0.03 | 0.03 | 42 | 1013.0 |
| 20260508203128 | 20 | 201 | 3.2 | 8.0 | 0.00 | 0.03 | 0.03 | 41 | 1013.0 |
| 20260508203045 | 20 | 217 | 6.4 | 8.0 | 0.00 | 0.03 | 0.03 | 41 | 1013.0 |
| 20260508202930 | 20 | 223 | 6.4 | 8.0 | 0.00 | 0.05 | 0.03 | 41 | 1013.1 |
| 20260508201927 | 20 | 223 | 8.0 | 11.3 | 0.00 | 0.05 | 0.03 | 41 | 1013.2 |
| 20260508201827 | 20 | 220 | 8.0 | 14.5 | 0.00 | 0.05 | 0.03 | 41 | 1013.2 |
| 20260508200827 | 20 | 209 | 4.8 | 8.0 | 0.00 | 0.05 | 0.03 | 41 | 1013.3 |
| 20260508200743 | 20 | 225 | 8.0 | 11.3 | 0.00 | 0.05 | 0.03 | 40 | 1013.3 |
| 20260508194828 | 20 | 222 | 9.7 | 14.5 | 0.00 | 0.05 | 0.03 | 40 | 1013.4 |
| 20260508193845 | 20 | 213 | 8.0 | 11.3 | 0.00 | 0.05 | 0.03 | 41 | 1013.7 |
| 20260508193745 | 20 | 223 | 4.8 | 8.0 | 0.00 | 0.05 | 0.03 | 41 | 1013.6 |
| 20260508192828 | 20 | 215 | 4.8 | 9.7 | 0.00 | 0.05 | 0.03 | 41 | 1013.6 |
| 20260508191828 | 20 | 217 | 4.8 | 6.4 | 0.00 | 0.05 | 0.03 | 40 | 1013.6 |
| 20260508190827 | 20 | 220 | 11.3 | 17.7 | 0.00 | 0.05 | 0.03 | 39 | 1013.8 |
| 20260508185728 | 20 | 215 | 12.9 | 24.1 | 0.00 | 0.05 | 0.03 | 38 | 1013.7 |
| 20260508183744 | 20 | 214 | 8.0 | 14.5 | 0.00 | 0.05 | 0.03 | 40 | 1014.2 |
| 20260508182828 | 20 | 214 | 11.3 | 17.7 | 0.00 | 0.05 | 0.03 | 40 | 1014.2 |
| 20260508181843 | 20 | 215 | 8.0 | 12.9 | 0.00 | 0.05 | 0.03 | 41 | 1014.3 |
| 20260508174828 | 20 | 215 | 9.7 | 17.7 | 0.00 | 0.05 | 0.03 | 41 | 1015.1 |
| 20260508174728 | 20 | 215 | 11.3 | 20.9 | 0.00 | 0.05 | 0.03 | 42 | 1015.0 |
| 20260508173743 | 19 | 223 | 14.5 | 22.5 | 0.00 | 0.05 | 0.03 | 42 | 1015.2 |
| 20260508172728 | 19 | 215 | 6.4 | 9.7 | 0.00 | 0.05 | 0.03 | 43 | 1015.4 |
| 20260508171744 | 18 | 217 | 9.7 | 12.9 | 0.00 | 0.05 | 0.03 | 44 | 1015.5 |
| 20260508170827 | 19 | 212 | 11.3 | 20.9 | 0.00 | 0.05 | 0.03 | 44 | 1015.7 |
| 20260508170727 | 19 | 219 | 8.0 | 12.9 | 0.00 | 0.05 | 0.03 | 44 | 1015.8 |
| 20260508165727 | 19 | 210 | 3.2 | 6.4 | 0.00 | 0.05 | 0.03 | 44 | 1015.7 |
| 20260508163829 | 19 | 209 | 4.8 | 8.0 | 0.00 | 0.05 | 0.03 | 43 | 1016.1 |
| 20260508163729 | 19 | 219 | 8.0 | 17.7 | 0.00 | 0.05 | 0.03 | 43 | 1016.1 |
| 20260508162730 | 19 | 218 | 11.3 | 14.5 | 0.00 | 0.05 | 0.03 | 45 | 1016.4 |
| 20260508161729 | 18 | 212 | 6.4 | 11.3 | 0.00 | 0.05 | 0.03 | 45 | 1016.6 |
| 20260508155630 | 18 | 224 | 12.9 | 19.3 | 0.00 | 0.05 | 0.03 | 45 | 1016.6 |
| 20260508154727 | 18 | 214 | 12.9 | 22.5 | 0.00 | 0.05 | 0.03 | 45 | 1016.6 |
| 20260508153727 | 18 | 212 | 11.3 | 17.7 | 0.00 | 0.05 | 0.03 | 47 | 1016.8 |
| 20260508152729 | 17 | 221 | 6.4 | 9.7 | 0.00 | 0.05 | 0.03 | 47 | 1017.0 |
| 20260508151729 | 17 | 220 | 6.4 | 11.3 | 0.00 | 0.05 | 0.03 | 49 | 1017.2 |
| 20260508144827 | 16 | 223 | 6.4 | 12.9 | 0.00 | 0.05 | 0.03 | 52 | 1017.5 |
| 20260508142845 | 15 | 223 | 8.0 | 11.3 | 0.03 | 0.05 | 0.03 | 54 | 1017.6 |
| 20260508141929 | 15 | 221 | 6.4 | 11.3 | 0.03 | 0.05 | 0.03 | 55 | 1017.6 |
| 20260508140027 | 13 | 217 | 9.7 | 11.3 | 0.03 | 0.05 | 0.03 | 56 | 1018.0 |
| 20260508135027 | 13 | 224 | 14.5 | 22.5 | 0.03 | 0.05 | 0.03 | 56 | 1018.0 |
| 20260508134028 | 13 | 223 | 14.5 | 24.1 | 0.00 | 0.03 | 0.00 | 57 | 1017.9 |
| 20260508133046 | 13 | 215 | 14.5 | 17.7 | 0.00 | 0.03 | 0.00 | 59 | 1018.1 |
| 20260508132130 | 12 | 225 | 8.0 | 16.1 | 0.00 | 0.03 | 0.00 | 60 | 1018.0 |
| 20260508132029 | 12 | 225 | 8.0 | 11.3 | 0.00 | 0.03 | 0.00 | 59 | 1018.0 |
| 20260508131046 | 11 | 225 | 9.7 | 14.5 | 0.00 | 0.03 | 0.00 | 61 | 1018.1 |
| 20260508130127 | 11 | 250 | 12.9 | 20.9 | 0.00 | 0.03 | 0.00 | 62 | 1018.0 |
| 20260508125142 | 11 | 245 | 9.7 | 12.9 | 0.00 | 0.03 | 0.00 | 65 | 1018.2 |
| 20260508125028 | 11 | 246 | 9.7 | 12.9 | 0.00 | 0.03 | 0.00 | 66 | 1018.2 |
| 20260508124127 | 11 | 241 | 8.0 | 11.3 | 0.00 | 0.03 | 0.00 | 66 | 1018.2 |
| 20260508123129 | 10 | 254 | 6.4 | 12.9 | 0.00 | 0.03 | 0.00 | 65 | 1017.9 |
| 20260508122143 | 10 | 250 | 6.4 | 9.7 | 0.00 | 0.03 | 0.00 | 67 | 1017.9 |
| 20260508121229 | 10 | 246 | 8.0 | 12.9 | 0.00 | 0.03 | 0.00 | 69 | 1017.9 |
| 20260508120227 | 10 | 241 | 8.0 | 11.3 | 0.00 | 0.03 | 0.00 | 71 | 1017.9 |
| 20260508115128 | 9 | 241 | 8.0 | 11.3 | 0.00 | 0.03 | 0.00 | 74 | 1017.8 |
| 20260508114128 | 8 | 240 | 8.0 | 12.9 | 0.00 | 0.03 | 0.00 | 75 | 1017.8 |
| 20260508113226 | 8 | 247 | 6.4 | 8.0 | 0.00 | 0.03 | 0.00 | 78 | 1017.8 |
| 20260508113127 | 8 | 248 | 4.8 | 8.0 | 0.00 | 0.03 | 0.00 | 79 | 1017.9 |
| 20260508112127 | 8 | 247 | 1.6 | 4.8 | 0.00 | 0.03 | 0.00 | 84 | 1017.8 |
| 20260508111128 | 7 | 247 | 3.2 | 4.8 | 0.00 | 0.03 | 0.00 | 90 | 1017.6 |
| 20260508110127 | 6 | 247 | 0.0 | 0.0 | 0.00 | 0.03 | 0.00 | 91 | 1017.5 |
| 20260508105143 | 6 | 247 | 0.0 | 0.0 | 0.00 | 0.03 | 0.00 | 92 | 1017.6 |
| 20260508104230 | 6 | 247 | 0.0 | 0.0 | 0.00 | 0.03 | 0.00 | 92 | 1017.5 |
| 20260508102329 | 6 | 247 | 0.0 | 0.0 | 0.00 | 0.03 | 0.00 | 92 | 1017.6 |
| 20260508101329 | 6 | 247 | 0.0 | 0.0 | 0.00 | 0.03 | 0.00 | 91 | 1017.6 |
| 20260508101226 | 6 | 247 | 0.0 | 0.0 | 0.00 | 0.03 | 0.00 | 91 | 1017.6 |
| 20260508100243 | 6 | 247 | 0.0 | 0.0 | 0.00 | 0.03 | 0.00 | 91 | 1017.5 |
| 20260508095227 | 6 | 247 | 0.0 | 0.0 | 0.00 | 0.03 | 0.00 | 91 | 1017.5 |
| 20260508094244 | 6 | 247 | 0.0 | 0.0 | 0.00 | 0.03 | 0.00 | 91 | 1017.5 |
| 20260508094128 | 6 | 247 | 0.0 | 0.0 | 0.00 | 0.03 | 0.00 | 91 | 1017.5 |
| 20260508093227 | 6 | 247 | 0.0 | 0.0 | 0.00 | 0.03 | 0.00 | 91 | 1017.6 |
| 20260508092226 | 6 | 247 | 0.0 | 0.0 | 0.00 | 0.03 | 0.00 | 90 | 1017.7 |
| 20260508092127 | 6 | 247 | 0.0 | 0.0 | 0.00 | 0.03 | 0.00 | 91 | 1017.7 |
| 20260508091128 | 5 | 247 | 0.0 | 0.0 | 0.00 | 0.03 | 0.00 | 91 | 1017.7 |
| 20260508090127 | 5 | 247 | 0.0 | 0.0 | 0.00 | 0.03 | 0.00 | 90 | 1017.7 |
| 20260508085128 | 5 | 247 | 0.0 | 0.0 | 0.00 | 0.03 | 0.00 | 89 | 1017.6 |
| 20260508085044 | 5 | 247 | 0.0 | 0.0 | 0.00 | 0.03 | 0.00 | 89 | 1017.7 |
| 20260508083928 | 5 | 247 | 0.0 | 0.0 | 0.00 | 0.03 | 0.00 | 89 | 1017.5 |
| 20260508082930 | 5 | 247 | 0.0 | 0.0 | 0.00 | 0.03 | 0.00 | 89 | 1017.5 |
| 20260508082026 | 5 | 247 | 0.0 | 0.0 | 0.00 | 0.03 | 0.00 | 88 | 1017.4 |
| 20260508081028 | 5 | 247 | 0.0 | 0.0 | 0.00 | 0.03 | 0.00 | 88 | 1017.4 |
| 20260508080929 | 5 | 247 | 0.0 | 0.0 | 0.00 | 0.03 | 0.00 | 88 | 1017.4 |
| 20260508075943 | 5 | 247 | 0.0 | 0.0 | 0.00 | 0.03 | 0.00 | 87 | 1017.5 |
| 20260508075028 | 5 | 247 | 0.0 | 0.0 | 0.00 | 0.03 | 0.00 | 86 | 1017.4 |
| 20260508074027 | 6 | 247 | 0.0 | 0.0 | 0.00 | 0.03 | 0.00 | 86 | 1017.5 |
| 20260508073126 | 6 | 247 | 0.0 | 0.0 | 0.00 | 0.03 | 0.00 | 88 | 1017.5 |
| 20260508072129 | 6 | 247 | 0.0 | 0.0 | 0.00 | 0.03 | 0.00 | 88 | 1017.4 |
| 20260508071128 | 5 | 247 | 0.0 | 0.0 | 0.00 | 0.03 | 0.00 | 91 | 1017.6 |
| 20260508070129 | 5 | 247 | 0.0 | 0.0 | 0.00 | 0.03 | 0.00 | 90 | 1017.6 |
| 20260508065130 | 5 | 247 | 0.0 | 0.0 | 0.00 | 0.03 | 0.00 | 91 | 1017.8 |
| 20260508064145 | 5 | 247 | 0.0 | 0.0 | 0.00 | 0.03 | 0.00 | 91 | 1017.8 |
| 20260508063228 | 5 | 247 | 0.0 | 0.0 | 0.00 | 0.03 | 0.00 | 91 | 1017.9 |
| 20260508062327 | 5 | 247 | 0.0 | 0.0 | 0.00 | 0.03 | 0.00 | 90 | 1018.2 |
| 20260508061328 | 5 | 247 | 0.0 | 0.0 | 0.00 | 0.03 | 0.00 | 90 | 1018.0 |
| 20260508060328 | 5 | 247 | 0.0 | 0.0 | 0.00 | 0.03 | 0.00 | 89 | 1018.3 |
| 20260508055426 | 5 | 247 | 0.0 | 0.0 | 0.00 | 0.03 | 0.00 | 89 | 1018.3 |
| 20260508054443 | 5 | 247 | 0.0 | 0.0 | 0.00 | 0.03 | 0.00 | 88 | 1018.2 |
| 20260508052427 | 5 | 247 | 0.0 | 0.0 | 0.00 | 0.03 | 0.00 | 86 | 1018.2 |
| 20260508052328 | 5 | 247 | 0.0 | 0.0 | 0.00 | 0.03 | 0.00 | 87 | 1018.2 |
| 20260508051345 | 5 | 247 | 0.0 | 0.0 | 0.00 | 0.03 | 0.00 | 85 | 1018.2 |
| 20260508045328 | 6 | 247 | 0.0 | 0.0 | 0.00 | 0.03 | 0.00 | 85 | 1018.0 |
| 20260508044327 | 6 | 247 | 0.0 | 0.0 | 0.00 | 0.03 | 0.00 | 84 | 1018.1 |
| 20260508043328 | 6 | 247 | 0.0 | 0.0 | 0.00 | 0.03 | 0.00 | 84 | 1018.0 |
| 20260508042329 | 6 | 247 | 0.0 | 0.0 | 0.00 | 0.03 | 0.00 | 84 | 1018.0 |
| 20260508041426 | 6 | 247 | 0.0 | 0.0 | 0.00 | 0.03 | 0.00 | 83 | 1018.1 |
| 20260508041343 | 6 | 247 | 0.0 | 0.0 | 0.00 | 0.03 | 0.00 | 83 | 1018.1 |
| 20260508035425 | 7 | 247 | 0.0 | 0.0 | 0.00 | 0.03 | 0.03 | 84 | 1017.9 |
| 20260508034443 | 7 | 247 | 0.0 | 0.0 | 0.00 | 0.03 | 0.03 | 83 | 1017.7 |